Time;durP1;ratioP1;P1;durP2;ratioP2;P2;SDS_P1;SDS_P2;PMS_P1;PMS_P2;Temp;Humidity;BMP_temperature;BMP_pressure;BME280_temperature;BME280_humidity;BME280_pressure;Samples;Min_cycle;Max_cycle;Signal;HPM_P1;HPM_P2
2023/08/01 00:00:15;;;;;;;5.03;3.47;;;16.00;99.90;;;;;;5054243;28;20285;-82
2023/08/01 00:02:42;;;;;;;4.30;3.27;;;16.00;99.90;;;;;;5072518;28;20173;-82
2023/08/01 00:05:08;;;;;;;4.00;3.00;;;16.00;99.90;;;;;;5072254;28;20172;-82
2023/08/01 00:07:33;;;;;;;5.80;3.03;;;16.00;99.90;;;;;;5072430;28;20255;-83
2023/08/01 00:09:59;;;;;;;4.30;3.20;;;16.10;99.90;;;;;;5075052;28;20177;-83
2023/08/01 00:12:24;;;;;;;3.83;3.30;;;16.10;99.90;;;;;;5058411;28;20173;-82
2023/08/01 00:14:50;;;;;;;5.57;3.50;;;16.10;99.90;;;;;;5058359;28;20208;-82
2023/08/01 00:17:16;;;;;;;4.83;3.10;;;16.10;99.90;;;;;;5076030;28;20224;-82
2023/08/01 00:19:41;;;;;;;4.07;3.17;;;16.10;99.90;;;;;;5076187;28;20172;-82
2023/08/01 00:22:07;;;;;;;4.93;3.13;;;16.10;99.90;;;;;;5058214;28;20204;-82
2023/08/01 00:24:32;;;;;;;3.77;2.93;;;16.10;99.90;;;;;;5058348;28;20193;-82
2023/08/01 00:26:58;;;;;;;4.00;3.07;;;16.10;99.90;;;;;;5058361;28;20229;-83
2023/08/01 00:29:23;;;;;;;6.90;2.90;;;16.10;99.90;;;;;;5058318;28;20181;-82
2023/08/01 00:31:49;;;;;;;3.50;2.70;;;16.10;99.90;;;;;;5058289;28;20188;-82
2023/08/01 00:34:14;;;;;;;3.47;2.40;;;16.10;99.90;;;;;;5075976;28;20205;-82
2023/08/01 00:36:40;;;;;;;4.07;2.63;;;16.10;99.90;;;;;;5076139;28;20259;-82
2023/08/01 00:39:05;;;;;;;2.77;2.40;;;16.10;99.90;;;;;;5076645;28;20261;-82
2023/08/01 00:41:31;;;;;;;5.03;2.83;;;16.10;99.90;;;;;;5075692;28;20193;-82
2023/08/01 00:43:57;;;;;;;4.00;2.43;;;16.10;99.90;;;;;;5075769;28;20197;-82
2023/08/01 00:46:24;;;;;;;3.90;2.30;;;16.10;99.90;;;;;;5075987;28;20169;-82
2023/08/01 00:48:49;;;;;;;5.23;2.27;;;16.00;99.90;;;;;;5058045;28;20169;-82
2023/08/01 00:51:17;;;;;;;2.60;2.20;;;16.10;99.90;;;;;;5057551;28;20274;-82
2023/08/01 00:53:45;;;;;;;3.37;2.33;;;16.10;99.90;;;;;;5075665;28;20216;-83
2023/08/01 00:56:11;;;;;;;3.03;2.73;;;16.10;99.90;;;;;;5057891;28;20267;-82
2023/08/01 00:58:36;;;;;;;3.10;2.00;;;16.10;99.90;;;;;;5057688;28;20726;-82
2023/08/01 01:01:03;;;;;;;3.13;2.47;;;16.10;99.90;;;;;;5075662;28;20208;-83
2023/08/01 01:03:29;;;;;;;3.07;2.27;;;16.10;99.90;;;;;;5057623;28;20200;-82
2023/08/01 01:06:00;;;;;;;2.90;2.60;;;16.10;99.90;;;;;;5057548;28;20188;-82
2023/08/01 01:08:26;;;;;;;2.70;2.00;;;16.10;99.90;;;;;;5075684;28;20231;-83
2023/08/01 01:10:52;;;;;;;3.33;2.20;;;16.00;99.90;;;;;;5057227;28;20185;-82
2023/08/01 01:13:17;;;;;;;3.10;2.30;;;16.00;99.90;;;;;;5075383;28;20261;-82
2023/08/01 01:15:43;;;;;;;3.20;2.20;;;16.00;99.90;;;;;;5075403;28;20212;-82
2023/08/01 01:18:08;;;;;;;3.03;2.37;;;16.00;99.90;;;;;;5057356;28;20177;-82
2023/08/01 01:20:35;;;;;;;3.50;2.40;;;16.10;99.90;;;;;;5074655;28;20204;-82
2023/08/01 01:23:03;;;;;;;2.70;2.00;;;16.00;99.90;;;;;;5074890;28;20181;-82
2023/08/01 01:25:30;;;;;;;2.23;1.67;;;16.00;99.90;;;;;;5057398;28;20263;-83
2023/08/01 01:27:57;;;;;;;3.33;1.90;;;16.00;99.90;;;;;;5057081;28;20659;-83
2023/08/01 01:30:24;;;;;;;3.27;2.17;;;16.00;99.90;;;;;;5056855;28;20177;-82
2023/08/01 01:32:50;;;;;;;1.80;1.70;;;16.00;99.90;;;;;;5056748;28;20173;-83
2023/08/01 01:35:15;;;;;;;2.43;1.70;;;16.00;99.90;;;;;;5057279;28;20292;-82
2023/08/01 01:37:41;;;;;;;1.80;1.50;;;16.00;99.90;;;;;;5075136;28;20200;-83
2023/08/01 01:40:07;;;;;;;1.77;1.53;;;16.00;99.90;;;;;;5056786;28;20203;-82
2023/08/01 01:42:32;;;;;;;1.20;1.10;;;16.10;99.90;;;;;;5075066;28;20177;-82
2023/08/01 01:44:58;;;;;;;1.30;1.20;;;16.00;99.90;;;;;;5074642;28;20197;-82
2023/08/01 01:47:23;;;;;;;1.20;1.10;;;16.10;99.90;;;;;;5074623;28;20180;-82
2023/08/01 01:49:49;;;;;;;1.33;1.23;;;16.10;99.90;;;;;;5074573;28;20169;-83
2023/08/01 01:52:15;;;;;;;1.70;1.40;;;16.00;99.90;;;;;;5056765;28;20662;-82
2023/08/01 01:54:40;;;;;;;1.13;1.03;;;16.10;99.90;;;;;;5074772;28;20554;-82
2023/08/01 01:57:06;;;;;;;2.03;1.30;;;16.10;99.90;;;;;;5074653;28;20203;-82
2023/08/01 01:59:31;;;;;;;1.40;1.17;;;16.10;99.90;;;;;;5074831;28;20173;-82
2023/08/01 02:01:57;;;;;;;1.80;1.37;;;16.10;99.90;;;;;;5074484;28;20212;-82
2023/08/01 02:04:22;;;;;;;2.20;1.30;;;16.10;99.90;;;;;;5056345;28;20189;-82
2023/08/01 02:06:48;;;;;;;2.23;1.50;;;16.10;99.90;;;;;;5075251;28;20181;-83
2023/08/01 02:09:13;;;;;;;2.13;1.37;;;16.00;99.90;;;;;;5056709;28;20264;-82
2023/08/01 02:11:39;;;;;;;1.30;1.20;;;16.00;99.90;;;;;;5056510;28;20231;-82
2023/08/01 02:14:05;;;;;;;2.87;1.20;;;16.00;99.90;;;;;;5056545;28;20193;-83
2023/08/01 02:16:30;;;;;;;2.33;1.30;;;16.00;99.90;;;;;;5074087;28;20181;-82
2023/08/01 02:18:57;;;;;;;2.27;1.27;;;16.00;99.90;;;;;;5074265;28;20283;-82
2023/08/01 02:21:23;;;;;;;1.30;1.20;;;16.00;99.90;;;;;;5056117;28;20296;-82
2023/08/01 02:23:48;;;;;;;1.93;1.30;;;16.00;99.90;;;;;;5073927;28;20326;-82
2023/08/01 02:26:14;;;;;;;4.20;1.27;;;16.00;99.90;;;;;;5056406;28;20223;-83
2023/08/01 02:28:40;;;;;;;2.47;1.20;;;16.00;99.90;;;;;;5055861;28;20580;-82
2023/08/01 02:31:05;;;;;;;2.47;1.20;;;16.00;99.90;;;;;;5055611;28;20590;-82
2023/08/01 02:33:31;;;;;;;1.50;1.10;;;16.10;99.90;;;;;;5055259;28;20259;-82
2023/08/01 02:35:56;;;;;;;1.47;1.10;;;16.10;99.90;;;;;;5055882;28;20203;-82
2023/08/01 02:38:22;;;;;;;1.23;1.00;;;16.10;99.90;;;;;;5055894;28;20183;-82
2023/08/01 02:40:47;;;;;;;1.30;1.20;;;16.10;99.90;;;;;;5055375;28;20576;-82
2023/08/01 02:43:13;;;;;;;1.40;1.13;;;16.10;99.90;;;;;;5055614;28;20242;-82
2023/08/01 02:45:38;;;;;;;1.60;1.30;;;16.10;99.90;;;;;;5073535;28;20181;-82
2023/08/01 02:48:04;;;;;;;4.40;1.30;;;16.10;99.90;;;;;;5055549;28;20181;-82
2023/08/01 02:50:30;;;;;;;1.87;1.40;;;16.20;99.90;;;;;;5073423;28;20210;-82
2023/08/01 02:52:55;;;;;;;1.73;1.60;;;16.20;99.90;;;;;;5055556;28;20701;-83
2023/08/01 02:55:21;;;;;;;2.23;1.57;;;16.20;99.90;;;;;;5055636;28;20176;-83
2023/08/01 02:57:46;;;;;;;3.20;1.73;;;16.20;99.90;;;;;;5055432;28;20173;-82
2023/08/01 03:00:12;;;;;;;1.73;1.50;;;16.20;99.90;;;;;;5055345;28;20204;-82
2023/08/01 03:02:39;;;;;;;1.87;1.43;;;16.20;99.90;;;;;;5055353;28;20260;-82
2023/08/01 03:05:07;;;;;;;2.20;1.70;;;16.30;99.90;;;;;;5055183;28;20192;-83
2023/08/01 03:07:33;;;;;;;1.60;1.40;;;16.30;99.90;;;;;;5055614;28;20170;-82
2023/08/01 03:09:58;;;;;;;2.20;1.50;;;16.30;99.90;;;;;;5073182;28;20173;-83
2023/08/01 03:12:24;;;;;;;3.03;1.63;;;16.20;99.90;;;;;;5073324;28;20231;-82
2023/08/01 03:14:50;;;;;;;2.20;1.67;;;16.20;99.90;;;;;;5055279;28;20199;-82
2023/08/01 03:17:16;;;;;;;2.27;1.90;;;16.20;99.90;;;;;;5072907;28;20169;-82
2023/08/01 03:19:42;;;;;;;3.03;1.60;;;16.20;99.90;;;;;;5055414;28;20169;-82
2023/08/01 03:22:08;;;;;;;3.50;1.80;;;16.20;99.90;;;;;;5073187;28;20235;-82
2023/08/01 03:24:33;;;;;;;1.87;1.73;;;16.20;99.90;;;;;;5055223;28;20193;-83
2023/08/01 03:26:59;;;;;;;2.20;1.70;;;16.30;99.90;;;;;;5073016;28;20184;-83
2023/08/01 03:29:24;;;;;;;3.07;2.00;;;16.30;99.90;;;;;;5054829;28;20177;-83
2023/08/01 03:31:50;;;;;;;2.37;1.73;;;16.30;99.90;;;;;;5054798;28;20184;-82
2023/08/01 03:34:15;;;;;;;1.97;1.70;;;16.20;99.90;;;;;;5073002;28;20204;-83
2023/08/01 03:36:41;;;;;;;2.90;1.90;;;16.30;99.90;;;;;;5055307;28;20183;-82
2023/08/01 03:39:06;;;;;;;2.57;2.00;;;16.30;99.90;;;;;;5054995;28;20296;-83
2023/08/01 03:41:32;;;;;;;2.67;1.90;;;16.30;99.90;;;;;;5054493;28;20287;-83
2023/08/01 03:43:58;;;;;;;3.07;2.23;;;16.30;99.90;;;;;;5072634;28;20323;-83
2023/08/01 03:46:24;;;;;;;1.90;1.70;;;16.30;99.90;;;;;;5055091;28;20197;-82
2023/08/01 03:48:49;;;;;;;1.90;1.60;;;16.30;99.90;;;;;;5073094;28;20181;-83
2023/08/01 03:51:15;;;;;;;2.00;1.73;;;16.30;99.90;;;;;;5054309;28;20176;-82
2023/08/01 03:53:41;;;;;;;2.20;1.70;;;16.30;99.90;;;;;;5073004;28;20261;-82
2023/08/01 03:56:07;;;;;;;2.73;1.50;;;16.30;99.90;;;;;;5054839;28;20173;-82
2023/08/01 03:58:33;;;;;;;2.23;1.70;;;16.30;99.90;;;;;;5054381;28;20573;-83
2023/08/01 04:00:58;;;;;;;2.40;1.60;;;16.30;99.90;;;;;;5072436;28;20224;-82
2023/08/01 04:03:24;;;;;;;1.90;1.70;;;16.30;99.90;;;;;;5072765;28;20209;-82
2023/08/01 04:05:49;;;;;;;2.73;1.80;;;16.30;99.90;;;;;;5055159;28;20180;-82
2023/08/01 04:08:15;;;;;;;2.57;1.70;;;16.30;99.90;;;;;;5054881;28;20173;-82
2023/08/01 04:10:41;;;;;;;2.20;1.87;;;16.20;99.90;;;;;;5054714;28;20173;-83
2023/08/01 04:13:06;;;;;;;2.70;1.80;;;16.20;99.90;;;;;;5054563;28;20189;-82
2023/08/01 04:15:32;;;;;;;2.63;1.60;;;16.20;99.90;;;;;;5072804;28;20242;-82
2023/08/01 04:17:57;;;;;;;2.10;1.77;;;16.20;99.90;;;;;;5072236;28;20218;-82
2023/08/01 04:20:23;;;;;;;3.70;1.87;;;16.30;99.90;;;;;;5054493;28;20280;-83
2023/08/01 04:22:48;;;;;;;2.43;1.60;;;16.30;99.90;;;;;;5072161;28;20247;-82
2023/08/01 04:25:14;;;;;;;2.27;1.50;;;16.30;99.90;;;;;;5054366;28;20187;-82
2023/08/01 04:27:39;;;;;;;2.00;1.53;;;16.30;99.90;;;;;;5054481;28;20173;-83
2023/08/01 04:30:06;;;;;;;2.50;1.37;;;16.30;99.90;;;;;;5072819;28;20165;-82
2023/08/01 04:32:31;;;;;;;1.80;1.30;;;16.30;99.90;;;;;;5072240;28;20165;-82
2023/08/01 04:34:57;;;;;;;1.80;1.30;;;16.30;99.90;;;;;;5083009;22;20618;-78
2023/08/01 04:37:23;;;;;;;2.20;1.37;;;16.20;99.90;;;;;;5041016;28;20193;-79
2023/08/01 04:39:48;;;;;;;2.83;1.20;;;16.20;99.90;;;;;;5040567;28;20170;-79
2023/08/01 04:42:14;;;;;;;2.33;1.10;;;16.20;99.90;;;;;;5058515;28;20205;-80
2023/08/01 04:44:40;;;;;;;2.13;1.23;;;16.30;99.90;;;;;;5057780;28;20213;-78
2023/08/01 04:47:05;;;;;;;1.33;1.00;;;16.30;99.90;;;;;;5058527;28;20174;-78
2023/08/01 04:49:31;;;;;;;0.90;0.90;;;16.30;99.90;;;;;;5058318;28;20169;-79
2023/08/01 04:51:56;;;;;;;1.77;1.30;;;16.30;99.90;;;;;;5039871;28;20249;-78
2023/08/01 04:54:22;;;;;;;2.60;1.50;;;16.30;99.90;;;;;;5057802;28;20224;-79
2023/08/01 04:56:47;;;;;;;2.37;1.37;;;16.40;99.90;;;;;;5044248;28;20181;-78
2023/08/01 04:59:13;;;;;;;2.03;1.10;;;16.40;99.90;;;;;;5062723;28;20265;-79
2023/08/01 05:01:38;;;;;;;1.77;1.40;;;16.40;99.90;;;;;;5044242;28;20205;-78
2023/08/01 05:04:04;;;;;;;1.67;1.43;;;16.40;99.90;;;;;;5061982;28;20201;-78
2023/08/01 05:06:30;;;;;;;1.90;1.30;;;16.40;99.90;;;;;;5043878;28;20257;-79
2023/08/01 05:08:55;;;;;;;2.13;1.40;;;16.40;99.90;;;;;;5044421;28;20178;-79
2023/08/01 05:11:21;;;;;;;2.10;1.47;;;16.50;99.90;;;;;;5039327;28;20200;-81
2023/08/01 05:13:47;;;;;;;1.83;1.63;;;16.50;99.90;;;;;;5056206;28;20206;-81
2023/08/01 05:16:12;;;;;;;1.93;1.50;;;16.50;99.90;;;;;;5038251;28;20184;-81
2023/08/01 05:18:38;;;;;;;2.03;1.60;;;16.50;99.90;;;;;;5037876;28;20178;-81
2023/08/01 05:21:04;;;;;;;1.67;1.50;;;16.50;99.90;;;;;;5037725;28;20212;-82
2023/08/01 05:23:29;;;;;;;2.43;1.27;;;16.50;99.90;;;;;;5038600;28;20205;-82
2023/08/01 05:25:55;;;;;;;1.93;1.40;;;16.50;99.90;;;;;;5038401;28;20177;-81
2023/08/01 05:28:20;;;;;;;2.67;1.50;;;16.60;99.90;;;;;;5037750;28;20174;-81
2023/08/01 05:30:47;;;;;;;2.20;1.83;;;16.60;99.90;;;;;;5055798;28;20173;-83
2023/08/01 05:33:12;;;;;;;1.83;1.60;;;16.60;99.90;;;;;;5055568;28;20211;-82
2023/08/01 05:35:38;;;;;;;1.90;1.50;;;16.60;99.90;;;;;;5037669;28;20276;-82
2023/08/01 05:38:03;;;;;;;2.10;1.50;;;16.70;99.90;;;;;;5056180;28;20192;-82
2023/08/01 05:40:29;;;;;;;1.93;1.33;;;16.60;99.90;;;;;;5055273;28;20297;-81
2023/08/01 05:42:54;;;;;;;1.70;1.40;;;16.70;99.90;;;;;;5055536;28;20174;-81
2023/08/01 05:45:20;;;;;;;1.70;1.30;;;16.70;99.90;;;;;;5037805;28;20229;-81
2023/08/01 05:47:45;;;;;;;1.70;1.30;;;16.70;99.90;;;;;;5037825;28;20173;-82
2023/08/01 05:50:12;;;;;;;2.17;1.20;;;16.70;99.90;;;;;;5037468;28;20632;-81
2023/08/01 05:52:37;;;;;;;1.63;1.20;;;16.70;99.90;;;;;;5055698;28;20162;-81
2023/08/01 05:55:03;;;;;;;1.70;1.30;;;16.60;99.90;;;;;;5055667;28;20188;-82
2023/08/01 05:57:29;;;;;;;2.03;1.20;;;16.70;99.90;;;;;;5055368;28;20169;-81
2023/08/01 05:59:55;;;;;;;1.57;1.30;;;16.60;99.90;;;;;;5038069;28;20173;-82
2023/08/01 06:02:20;;;;;;;1.77;1.43;;;16.60;99.90;;;;;;5056146;28;20206;-81
2023/08/01 06:04:46;;;;;;;1.63;1.40;;;16.50;99.90;;;;;;5037728;28;20285;-81
2023/08/01 06:07:11;;;;;;;1.47;1.30;;;16.50;99.90;;;;;;5036685;28;20169;-81
2023/08/01 06:09:37;;;;;;;2.00;1.20;;;16.40;99.90;;;;;;5037654;28;20188;-81
2023/08/01 06:12:02;;;;;;;1.30;0.90;;;16.40;99.90;;;;;;5038096;28;20177;-81
2023/08/01 06:14:28;;;;;;;1.33;1.10;;;16.40;99.90;;;;;;5037543;28;20202;-81
2023/08/01 06:16:54;;;;;;;1.43;1.13;;;16.40;99.90;;;;;;5037553;28;20184;-83
2023/08/01 06:19:19;;;;;;;1.20;1.10;;;16.40;99.90;;;;;;5038364;28;20585;-81
2023/08/01 06:21:45;;;;;;;1.80;1.10;;;16.50;99.90;;;;;;5055219;28;20205;-81
2023/08/01 06:24:10;;;;;;;1.40;1.27;;;16.50;99.90;;;;;;5037617;28;20197;-81
2023/08/01 06:26:36;;;;;;;1.30;1.10;;;16.50;99.90;;;;;;5055309;28;20203;-81
2023/08/01 06:29:02;;;;;;;1.43;1.00;;;16.50;99.90;;;;;;5037093;28;20220;-81
2023/08/01 06:31:27;;;;;;;1.70;1.20;;;16.50;99.90;;;;;;5054823;28;20182;-81
2023/08/01 06:33:53;;;;;;;0.90;0.90;;;16.50;99.90;;;;;;5055135;28;20763;-82
2023/08/01 06:36:18;;;;;;;1.00;0.87;;;16.40;99.90;;;;;;5037222;28;20327;-81
2023/08/01 06:38:44;;;;;;;0.80;0.80;;;16.50;99.90;;;;;;5055560;28;20224;-81
2023/08/01 06:41:09;;;;;;;0.93;0.80;;;16.40;99.90;;;;;;5037523;28;20286;-81
2023/08/01 06:43:38;;;;;;;1.03;0.93;;;16.40;99.90;;;;;;5055211;28;20190;-83
2023/08/01 06:46:03;;;;;;;1.33;0.90;;;16.40;99.90;;;;;;5037216;28;20253;-81
2023/08/01 06:48:29;;;;;;;1.23;1.00;;;16.40;99.90;;;;;;5036674;28;20204;-81
2023/08/01 06:50:55;;;;;;;1.67;1.10;;;16.40;99.90;;;;;;5036941;28;20268;-82
2023/08/01 06:53:21;;;;;;;1.03;0.90;;;16.40;99.90;;;;;;5036692;28;20213;-82
2023/08/01 06:55:46;;;;;;;1.20;1.10;;;16.40;99.90;;;;;;5054566;28;20180;-81
2023/08/01 06:58:12;;;;;;;1.20;1.00;;;16.40;99.90;;;;;;5036634;28;20173;-81
2023/08/01 07:00:37;;;;;;;1.00;0.90;;;16.40;99.90;;;;;;5053917;28;20289;-81
2023/08/01 07:03:03;;;;;;;1.13;1.00;;;16.40;99.90;;;;;;5054232;28;20165;-81
2023/08/01 07:05:29;;;;;;;1.30;0.90;;;16.40;99.90;;;;;;5037117;28;20239;-81
2023/08/01 07:07:54;;;;;;;0.80;0.80;;;16.40;99.90;;;;;;5036709;28;20176;-81
2023/08/01 07:10:20;;;;;;;1.30;0.90;;;16.40;99.90;;;;;;5036554;28;20181;-83
2023/08/01 07:12:46;;;;;;;1.03;0.87;;;16.50;99.90;;;;;;5036126;28;20244;-81
2023/08/01 07:15:11;;;;;;;0.80;0.80;;;16.50;99.90;;;;;;5035826;28;20200;-81
2023/08/01 07:17:37;;;;;;;1.00;0.83;;;16.60;99.90;;;;;;5053393;28;20696;-82
2023/08/01 07:20:03;;;;;;;1.00;0.90;;;16.60;99.90;;;;;;5035880;28;20255;-81
2023/08/01 07:22:28;;;;;;;1.20;1.03;;;16.60;99.90;;;;;;5054084;28;20707;-81
2023/08/01 07:24:54;;;;;;;1.77;1.10;;;16.50;99.90;;;;;;5035897;28;20221;-82
2023/08/01 07:27:20;;;;;;;1.23;1.07;;;16.60;99.90;;;;;;5036088;28;20181;-82
2023/08/01 07:29:46;;;;;;;1.43;1.10;;;16.60;99.90;;;;;;5035865;28;20660;-82
2023/08/01 07:32:12;;;;;;;0.90;0.80;;;16.70;99.90;;;;;;5054248;28;20178;-82
2023/08/01 07:34:37;;;;;;;0.90;0.90;;;16.80;99.90;;;;;;5036005;28;20213;-82
2023/08/01 07:37:03;;;;;;;1.17;1.00;;;16.80;99.90;;;;;;5053771;28;20217;-82
2023/08/01 07:39:29;;;;;;;1.17;1.00;;;16.90;99.90;;;;;;5035989;28;20197;-82
2023/08/01 07:41:56;;;;;;;1.50;1.40;;;17.00;99.90;;;;;;5035260;28;20198;-82
2023/08/01 07:44:21;;;;;;;3.70;2.70;;;17.00;99.90;;;;;;5053846;28;20185;-81
2023/08/01 07:46:47;;;;;;;3.90;3.13;;;17.10;99.90;;;;;;5053536;28;20170;-81
2023/08/01 07:49:12;;;;;;;3.53;3.23;;;17.00;99.90;;;;;;5053421;28;20185;-82
2023/08/01 07:51:38;;;;;;;3.57;3.23;;;16.90;99.90;;;;;;5053045;28;20173;-81
2023/08/01 07:54:03;;;;;;;3.80;3.50;;;16.90;99.90;;;;;;5053045;28;20272;-82
2023/08/01 07:56:29;;;;;;;4.27;3.20;;;16.90;99.90;;;;;;5035138;28;20589;-82
2023/08/01 07:58:55;;;;;;;3.93;3.53;;;16.90;99.90;;;;;;5053240;28;20174;-81
2023/08/01 08:01:21;;;;;;;4.23;3.53;;;16.90;99.90;;;;;;5035328;28;20217;-82
2023/08/01 08:03:46;;;;;;;3.90;3.60;;;16.90;99.90;;;;;;5035339;28;20207;-83
2023/08/01 08:06:12;;;;;;;4.57;3.60;;;16.90;99.90;;;;;;5035126;28;20251;-82
2023/08/01 08:08:38;;;;;;;3.63;3.33;;;16.90;99.90;;;;;;5035799;28;20169;-81
2023/08/01 08:11:03;;;;;;;3.97;3.60;;;17.00;99.90;;;;;;5053103;28;20174;-82
2023/08/01 08:13:29;;;;;;;4.27;3.87;;;17.00;99.90;;;;;;5035541;28;20598;-82
2023/08/01 08:15:58;;;;;;;3.93;3.50;;;17.00;99.90;;;;;;5053235;28;20170;-82
2023/08/01 08:18:24;;;;;;;4.70;3.97;;;17.00;99.90;;;;;;5052936;28;20303;-82
2023/08/01 08:20:50;;;;;;;4.47;3.80;;;17.10;99.90;;;;;;5052674;28;20230;-82
2023/08/01 08:23:15;;;;;;;4.73;3.90;;;17.20;99.90;;;;;;5053287;28;20224;-81
2023/08/01 08:25:42;;;;;;;2.97;2.77;;;17.20;99.90;;;;;;5053461;28;20661;-82
2023/08/01 08:28:08;;;;;;;3.73;3.30;;;17.20;99.90;;;;;;5035620;28;20193;-82
2023/08/01 08:30:35;;;;;;;4.23;3.13;;;17.20;99.90;;;;;;5054645;28;20182;-82
2023/08/01 08:33:04;;;;;;;3.67;2.90;;;17.10;99.90;;;;;;5057275;28;20554;-82
2023/08/01 08:35:30;;;;;;;3.30;2.93;;;17.10;99.90;;;;;;5038984;28;20256;-82
2023/08/01 08:37:55;;;;;;;3.30;3.00;;;17.10;99.90;;;;;;5057033;28;20177;-82
2023/08/01 08:40:21;;;;;;;3.50;3.20;;;17.10;99.90;;;;;;5056447;28;20679;-81
2023/08/01 08:42:49;;;;;;;4.03;3.40;;;17.10;99.90;;;;;;5039020;28;20216;-82
2023/08/01 08:45:19;;;;;;;3.93;3.27;;;17.10;99.90;;;;;;5056381;28;20198;-82
2023/08/01 08:47:52;;;;;;;4.17;3.37;;;17.10;99.90;;;;;;5038463;28;20257;-82
2023/08/01 08:50:18;;;;;;;3.80;3.40;;;17.10;99.90;;;;;;5056261;28;20243;-82
2023/08/01 08:52:45;;;;;;;3.43;3.10;;;17.10;99.90;;;;;;5038851;28;20220;-82
2023/08/01 08:55:11;;;;;;;3.33;3.03;;;17.10;99.90;;;;;;5038530;28;20289;-82
2023/08/01 08:57:39;;;;;;;3.70;3.23;;;17.00;99.90;;;;;;5038498;28;20213;-82
2023/08/01 09:00:06;;;;;;;4.73;3.23;;;16.90;99.90;;;;;;5037972;28;20224;-81
2023/08/01 09:02:32;;;;;;;3.50;3.10;;;16.90;99.90;;;;;;5038125;28;20197;-82
2023/08/01 09:04:58;;;;;;;4.07;3.37;;;16.80;99.90;;;;;;5056270;28;20569;-82
2023/08/01 09:07:29;;;;;;;3.87;3.23;;;16.80;99.90;;;;;;5038384;28;20177;-82
2023/08/01 09:09:55;;;;;;;3.77;3.37;;;16.70;99.90;;;;;;5056275;28;20177;-82
2023/08/01 09:12:21;;;;;;;3.47;3.17;;;16.70;99.90;;;;;;5038336;28;20188;-81
2023/08/01 09:14:50;;;;;;;3.53;3.23;;;16.70;99.90;;;;;;5038408;28;20189;-82
2023/08/01 09:17:18;;;;;;;4.20;3.80;;;16.80;99.90;;;;;;5055795;28;20177;-84
2023/08/01 09:19:44;;;;;;;3.80;3.50;;;16.80;99.90;;;;;;5037871;28;20202;-84
2023/08/01 09:22:13;;;;;;;4.30;3.70;;;16.90;99.90;;;;;;5055896;28;20225;-82
2023/08/01 09:24:49;;;;;;;4.20;3.77;;;17.00;99.90;;;;;;5038022;28;20194;-82
2023/08/01 09:27:15;;;;;;;5.47;3.70;;;17.30;99.90;;;;;;5055975;28;20169;-82
2023/08/01 09:29:41;;;;;;;4.07;3.67;;;17.60;99.90;;;;;;5037720;28;20227;-82
2023/08/01 09:32:16;;;;;;;5.37;3.77;;;17.60;99.90;;;;;;5037820;28;20526;-82
2023/08/01 09:34:43;;;;;;;4.57;3.47;;;17.60;99.90;;;;;;5037697;28;20212;-82
2023/08/01 09:37:08;;;;;;;5.13;3.80;;;17.60;99.90;;;;;;5037665;28;20181;-83
2023/08/01 09:39:34;;;;;;;3.90;3.50;;;17.60;99.90;;;;;;5037290;28;20207;-82
2023/08/01 09:42:01;;;;;;;3.90;3.60;;;17.70;99.90;;;;;;5055151;28;20758;-82
2023/08/01 09:44:28;;;;;;;4.27;3.87;;;17.80;99.90;;;;;;5055386;28;20178;-82
2023/08/01 09:46:57;;;;;;;5.13;4.63;;;17.80;86.70;;;;;;5037652;28;20177;-81
2023/08/01 09:49:22;;;;;;;4.47;4.07;;;17.80;99.90;;;;;;5037260;28;20174;-83
2023/08/01 09:51:49;;;;;;;4.80;4.10;;;17.70;64.90;;;;;;5037589;28;20178;-82
2023/08/01 09:54:16;;;;;;;4.40;4.00;;;17.80;99.90;;;;;;5037740;28;20539;-82
2023/08/01 09:56:45;;;;;;;4.97;4.43;;;17.80;99.90;;;;;;5055593;28;20178;-82
2023/08/01 09:59:11;;;;;;;5.00;4.57;;;18.10;1.00;;;;;;5055646;28;20242;-80
2023/08/01 10:01:39;;;;;;;5.77;4.50;;;18.60;70.60;;;;;;5037402;28;20737;-82
2023/08/01 10:04:05;;;;;;;5.10;3.97;;;18.90;1.00;;;;;;5037057;28;20218;-82
2023/08/01 10:06:33;;;;;;;5.43;4.20;;;18.60;99.90;;;;;;5037237;28;20209;-82
2023/08/01 10:09:00;;;;;;;5.20;3.77;;;18.30;1.00;;;;;;5036927;28;20184;-82
2023/08/01 10:11:28;;;;;;;4.73;4.00;;;18.20;1.00;;;;;;5037171;28;20197;-82
2023/08/01 10:13:55;;;;;;;4.27;3.87;;;18.30;1.00;;;;;;5055144;28;20300;-82
2023/08/01 10:16:22;;;;;;;5.43;3.60;;;18.70;1.00;;;;;;5037337;28;20204;-82
2023/08/01 10:18:49;;;;;;;3.97;3.30;;;19.00;99.90;;;;;;5054779;28;20173;-82
2023/08/01 10:21:17;;;;;;;4.33;2.93;;;19.10;1.00;;;;;;5037171;28;20305;-81
2023/08/01 10:23:44;;;;;;;4.23;2.90;;;19.00;1.00;;;;;;5036745;28;20233;-82
2023/08/01 10:26:11;;;;;;;4.37;3.03;;;18.90;99.90;;;;;;5054920;28;20249;-82
2023/08/01 10:28:42;;;;;;;3.90;2.70;;;18.80;99.90;;;;;;5036911;28;20193;-82
2023/08/01 10:31:12;;;;;;;3.73;2.77;;;18.80;99.90;;;;;;5036686;28;20184;-82
2023/08/01 10:33:46;;;;;;;4.20;2.80;;;19.20;1.00;;;;;;5060868;23;20283;-81
2023/08/01 10:36:17;;;;;;;3.63;2.27;;;19.60;1.00;;;;;;4995091;28;20183;-84
2023/08/01 10:38:59;;;;;;;3.20;2.10;;;20.10;1.00;;;;;;5013922;28;20186;-85
2023/08/01 10:41:29;;;;;;;2.30;2.10;;;20.30;1.00;;;;;;4995776;28;20202;-86
2023/08/01 10:44:24;;;;;;;3.17;2.17;;;20.60;99.90;;;;;;5012297;28;20191;-84
2023/08/01 10:46:59;;;;;;;3.25;1.83;;;20.70;28.30;;;;;;4987637;28;20183;-85
2023/08/01 10:49:33;;;;;;;3.05;1.83;;;20.70;1.00;;;;;;5013607;28;20557;-85
2023/08/01 10:51:59;;;;;;;3.60;2.20;;;20.50;1.00;;;;;;4995653;28;20641;-85
2023/08/01 10:54:25;;;;;;;3.97;2.05;;;20.20;1.00;;;;;;4995187;28;20205;-85
2023/08/01 10:56:53;;;;;;;3.20;2.20;;;20.40;72.30;;;;;;5013387;28;20183;-85
2023/08/01 10:59:20;;;;;;;2.57;2.00;;;20.30;1.00;;;;;;5013323;28;20186;-85
2023/08/01 11:01:51;;;;;;;2.60;1.80;;;20.20;99.90;;;;;;5013528;28;20214;-85
2023/08/01 11:04:17;;;;;;;2.75;2.00;;;20.10;86.70;;;;;;4995679;28;20203;-83
2023/08/01 11:06:44;;;;;;;2.47;1.70;;;20.00;1.00;;;;;;5013588;28;20201;-82
2023/08/01 11:09:21;;;;;;;2.17;1.75;;;19.90;99.90;;;;;;5013387;28;20183;-82
2023/08/01 11:11:49;;;;;;;3.07;1.80;;;19.80;99.90;;;;;;5013452;28;20239;-82
2023/08/01 11:14:15;;;;;;;4.43;2.15;;;19.70;1.00;;;;;;4995731;28;20199;-82
2023/08/01 11:16:43;;;;;;;2.33;1.90;;;19.60;1.00;;;;;;4995649;28;20234;-83
2023/08/01 11:19:25;;;;;;;2.23;2.00;;;19.50;99.90;;;;;;4995258;28;20197;-82
2023/08/01 11:21:52;;;;;;;2.60;1.80;;;19.40;1.00;;;;;;4995444;28;20241;-83
2023/08/01 11:24:19;;;;;;;3.00;2.10;;;19.20;96.90;;;;;;4995589;28;20195;-82
2023/08/01 11:26:47;;;;;;;2.40;1.87;;;19.10;99.90;;;;;;5013040;28;20203;-82
2023/08/01 11:29:13;;;;;;;3.37;1.53;;;19.40;1.00;;;;;;5012890;28;20175;-81
2023/08/01 11:31:40;;;;;;;2.13;1.77;;;19.90;99.90;;;;;;5012874;28;20179;-83
2023/08/01 11:34:08;;;;;;;2.50;1.77;;;20.50;1.00;;;;;;5012769;28;20286;-82
2023/08/01 11:36:33;;;;;;;1.98;1.77;;;20.70;99.90;;;;;;4995542;28;20210;-82
2023/08/01 11:39:00;;;;;;;1.90;1.50;;;20.40;99.90;;;;;;4995532;28;20214;-82
2023/08/01 11:41:30;;;;;;;2.30;1.50;;;20.10;99.90;;;;;;4995124;28;20207;-82
2023/08/01 11:43:55;;;;;;;2.50;1.70;;;19.70;99.90;;;;;;5012561;28;20187;-84
2023/08/01 11:46:22;;;;;;;2.78;1.70;;;19.60;1.00;;;;;;4995317;28;20194;-82
2023/08/01 11:48:50;;;;;;;1.80;1.40;;;19.80;99.90;;;;;;5013061;28;20175;-82
2023/08/01 11:51:16;;;;;;;1.90;1.50;;;20.10;99.90;;;;;;4995071;28;20175;-82
2023/08/01 11:53:41;;;;;;;2.30;1.40;;;20.00;99.90;;;;;;4995426;28;20170;-82
2023/08/01 11:56:07;;;;;;;1.50;1.40;;;20.10;99.90;;;;;;4995358;28;20179;-82
2023/08/01 11:58:37;;;;;;;2.78;1.70;;;20.30;1.00;;;;;;5012595;28;20178;-82
2023/08/01 12:01:07;;;;;;;2.78;1.83;;;20.20;1.00;;;;;;4994707;28;20700;-82
2023/08/01 12:03:45;;;;;;;2.57;2.10;;;20.10;1.00;;;;;;5011289;28;20205;-82
2023/08/01 12:06:13;;;;;;;3.23;1.90;;;20.10;1.00;;;;;;5015815;28;20178;-83
2023/08/01 12:08:39;;;;;;;2.05;1.60;;;20.50;99.90;;;;;;5016740;28;20162;-83
2023/08/01 12:11:04;;;;;;;3.03;1.70;;;20.80;97.40;;;;;;5017099;28;20174;-82
2023/08/01 12:13:31;;;;;;;2.05;1.70;;;20.60;98.40;;;;;;4999553;28;20584;-82
2023/08/01 12:15:57;;;;;;;2.25;1.65;;;20.50;1.00;;;;;;5015830;28;20199;-82
2023/08/01 12:18:28;;;;;;;1.58;1.48;;;20.90;99.90;;;;;;5000431;28;20206;-82
2023/08/01 12:20:53;;;;;;;1.70;1.40;;;21.50;1.00;;;;;;4999236;28;20202;-82
2023/08/01 12:23:20;;;;;;;2.95;1.27;;;21.80;99.90;;;;;;5016634;28;20545;-83
2023/08/01 12:25:46;;;;;;;3.55;1.65;;;22.00;99.90;;;;;;5002253;28;20195;-82
2023/08/01 12:28:14;;;;;;;1.40;1.30;;;22.00;99.90;;;;;;4998852;28;20174;-82
2023/08/01 12:30:43;;;;;;;1.58;1.35;;;22.10;99.90;;;;;;4998666;28;20241;-82
2023/08/01 12:33:09;;;;;;;2.20;1.33;;;22.10;3.30;;;;;;5016362;28;20642;-82
2023/08/01 12:35:38;;;;;;;1.50;1.38;;;22.30;99.90;;;;;;5016044;28;20265;-83
2023/08/01 12:38:04;;;;;;;2.50;1.30;;;22.60;1.00;;;;;;5016024;28;20194;-83
2023/08/01 12:40:29;;;;;;;2.25;1.40;;;22.40;1.00;;;;;;5015914;28;20179;-83
2023/08/01 12:42:55;;;;;;;1.70;1.50;;;22.10;99.90;;;;;;4998543;28;20179;-82